Time;durP1;ratioP1;P1;durP2;ratioP2;P2;SDS_P1;SDS_P2;PMS_P1;PMS_P2;Temp;Humidity;BMP_temperature;BMP_pressure;BME280_temperature;BME280_humidity;BME280_pressure;Samples;Min_cycle;Max_cycle;Signal;HPM_P1;HPM_P2
2023/10/17 10:19:10;;;;;;;;;;;18.20;52.00;;;;;;4991307;28;20454;-62
2023/10/17 10:21:50;;;;;;;;;;;18.70;52.20;;;;;;5010910;28;19990;-61
2023/10/17 10:24:18;;;;;;;;;;;18.70;51.70;;;;;;5010427;28;19982;-62
2023/10/17 10:26:43;;;;;;;;;;;18.70;50.90;;;;;;5009783;28;19993;-61
2023/10/17 10:29:29;;;;;;;;;;;18.30;50.20;;;;;;5021204;28;19982;-62
2023/10/17 10:31:55;;;;;;;;;;;18.40;51.80;;;;;;5009924;28;20009;-64
2023/10/17 10:34:21;;;;;;;;;;;18.90;50.00;;;;;;4993587;28;19982;-63
2023/10/17 10:36:47;;;;;;;;;;;19.40;47.20;;;;;;4994657;28;20064;-62
2023/10/17 10:39:13;;;;;;;;;;;19.60;46.80;;;;;;5012901;28;20429;-60
2023/10/17 10:41:53;;;;;;;;;;;19.70;46.60;;;;;;5011714;28;20080;-63
2023/10/17 10:44:20;;;;;;;;;;;19.90;44.00;;;;;;5010391;28;20037;-62
2023/10/17 10:46:46;;;;;;;;;;;20.00;43.50;;;;;;5019162;28;19982;-63
2023/10/17 10:49:11;;;;;;;;;;;20.30;42.10;;;;;;5022428;28;20551;-61
2023/10/17 10:51:37;;;;;;;;;;;20.50;39.40;;;;;;5015959;28;19989;-60
2023/10/17 10:54:02;;;;;;;;;;;20.50;42.60;;;;;;5016580;28;20429;-61
2023/10/17 10:56:28;;;;;;;;;;;20.30;39.30;;;;;;5015888;28;20022;-63
2023/10/17 10:58:57;;;;;;;;;;;20.10;40.30;;;;;;5015601;28;19986;-61
2023/10/17 11:01:23;;;;;;;;;;;19.90;38.70;;;;;;5012663;28;19994;-63
2023/10/17 11:03:49;;;;;;;;;;;19.60;40.30;;;;;;5015141;28;20337;-61
2023/10/17 11:06:19;;;;;;;;;;;19.50;39.40;;;;;;5000045;28;20029;-62
2023/10/17 11:08:46;;;;;;;;;;;19.60;40.70;;;;;;5017303;28;19983;-62
2023/10/17 11:11:14;;;;;;;;;;;20.00;41.40;;;;;;5007938;28;20440;-61
2023/10/17 11:13:50;;;;;;;;;;;20.20;40.40;;;;;;5008863;28;20037;-62
2023/10/17 11:16:19;;;;;;;;;;;20.40;41.20;;;;;;5025158;28;20063;-63
2023/10/17 11:18:45;;;;;;;;;;;20.60;39.70;;;;;;5028010;28;20075;-62
2023/10/17 11:21:11;;;;;;;;;;;20.80;38.00;;;;;;5028796;28;19986;-62
2023/10/17 11:23:39;;;;;;;;;;;20.50;36.70;;;;;;5022713;28;19994;-64
2023/10/17 11:26:09;;;;;;;;;;;20.20;37.80;;;;;;5033278;28;20309;-64
2023/10/17 11:28:41;;;;;;;;;;;20.20;38.20;;;;;;5031285;28;19994;-62
2023/10/17 11:31:12;;;;;;;;;;;20.10;38.00;;;;;;5013457;28;19986;-63
2023/10/17 11:33:45;;;;;;;;;;;20.40;37.70;;;;;;5032531;28;19990;-63
2023/10/17 11:36:20;;;;;;;;;;;20.70;35.70;;;;;;5030495;28;20006;-61
2023/10/17 11:38:56;;;;;;;;;;;20.70;37.60;;;;;;5032151;28;20423;-62
2023/10/17 11:41:28;;;;;;;;;;;20.80;36.10;;;;;;5033457;28;20418;-61
2023/10/17 11:43:54;;;;;;;;;;;20.60;36.10;;;;;;5033785;28;20028;-62
2023/10/17 11:46:35;;;;;;;;;;;20.80;38.90;;;;;;5035278;28;20044;-66
2023/10/17 11:49:35;;;;;;;;;;;21.10;40.00;;;;;;5033497;28;19986;-63
2023/10/17 11:52:01;;;;;;;;;;;21.30;38.10;;;;;;4975604;28;20356;-62
2023/10/17 11:54:30;;;;;;;;;;;21.50;36.30;;;;;;5035390;28;19983;-62
2023/10/17 11:57:07;;;;;;;;;;;21.50;34.10;;;;;;5035330;28;20010;-60
2023/10/17 11:59:33;;;;;;;;;;;21.40;33.90;;;;;;5035623;28;20036;-62
2023/10/17 12:02:02;;;;;;;;;;;21.30;35.10;;;;;;5035694;28;19982;-61
2023/10/17 12:04:27;;;;;;;;;;;21.40;33.40;;;;;;5035461;28;19982;-61
2023/10/17 12:06:53;;;;;;;;;;;21.00;36.20;;;;;;5036040;28;20045;-60
2023/10/17 12:09:22;;;;;;;;;;;20.90;35.00;;;;;;5035444;28;19982;-63
2023/10/17 12:11:49;;;;;;;;;;;20.80;35.10;;;;;;5035287;28;19997;-65
2023/10/17 12:14:19;;;;;;;;;;;20.80;35.50;;;;;;5035484;28;20133;-62
2023/10/17 12:16:48;;;;;;;;;;;21.00;33.80;;;;;;5030861;28;20497;-64
2023/10/17 12:19:19;;;;;;;;;;;21.20;35.70;;;;;;5035128;28;20439;-63
2023/10/17 12:21:48;;;;;;;;;;;21.40;33.50;;;;;;5018794;28;19990;-63
2023/10/17 12:24:24;;;;;;;;;;;21.50;34.00;;;;;;5034229;28;19994;-60
2023/10/17 12:26:50;;;;;;;;;;;21.80;34.00;;;;;;5034472;28;19993;-64
2023/10/17 12:29:16;;;;;;;;;;;22.00;33.50;;;;;;5016677;28;19998;-62
2023/10/17 12:31:42;;;;;;;;;;;22.30;32.90;;;;;;5034368;28;20339;-62
2023/10/17 12:34:07;;;;;;;;;;;22.40;33.80;;;;;;5034682;28;19986;-65
2023/10/17 12:36:35;;;;;;;;;;;22.70;32.90;;;;;;5034547;28;20014;-64
2023/10/17 12:39:02;;;;;;;;;;;22.70;32.60;;;;;;5016465;28;20008;-61
2023/10/17 12:41:30;;;;;;;;;;;22.60;33.10;;;;;;5034515;28;20049;-65
2023/10/17 12:43:56;;;;;;;;;;;22.80;33.30;;;;;;5031613;28;20345;-66
2023/10/17 12:46:22;;;;;;;;;;;22.90;32.20;;;;;;5034337;28;20036;-63
2023/10/17 12:48:47;;;;;;;;;;;22.80;32.70;;;;;;5035025;28;20009;-64
2023/10/17 12:51:13;;;;;;;;;;;23.10;32.70;;;;;;5035098;28;19993;-65
2023/10/17 12:53:38;;;;;;;;;;;23.20;29.90;;;;;;5034921;28;19982;-64
2023/10/17 12:56:05;;;;;;;;;;;22.90;32.00;;;;;;5035087;28;20056;-62
2023/10/17 12:58:36;;;;;;;;;;;22.70;30.70;;;;;;5034815;28;20029;-66
2023/10/17 13:01:05;;;;;;;;;;;22.60;32.50;;;;;;5034726;28;20048;-63
2023/10/17 13:03:36;;;;;;;;;;;22.90;32.80;;;;;;5034779;28;19982;-66
2023/10/17 13:06:02;;;;;;;;;;;23.20;30.90;;;;;;5034665;28;20046;-63
2023/10/17 13:08:27;;;;;;;;;;;23.10;31.30;;;;;;5034593;28;19983;-64
2023/10/17 13:10:54;;;;;;;;;;;23.20;30.90;;;;;;5034516;28;19993;-63
2023/10/17 13:13:19;;;;;;;;;;;23.20;30.60;;;;;;5034545;28;20436;-64
2023/10/17 13:15:46;;;;;;;;;;;23.20;33.30;;;;;;5016568;28;20021;-64
2023/10/17 13:18:12;;;;;;;;;;;23.30;29.40;;;;;;5035044;28;19989;-65
2023/10/17 13:20:38;;;;;;;;;;;23.00;30.10;;;;;;5034230;28;20018;-63
2023/10/17 13:23:04;;;;;;;;;;;22.70;30.20;;;;;;5034384;28;20466;-61
2023/10/17 13:25:36;;;;;;;;;;;22.50;34.30;;;;;;5034396;28;19986;-64
2023/10/17 13:28:02;;;;;;;;;;;22.70;32.80;;;;;;5034690;28;20347;-65
2023/10/17 13:30:28;;;;;;;;;;;22.90;34.30;;;;;;5034212;28;19986;-62
2023/10/17 13:32:54;;;;;;;;;;;23.10;34.80;;;;;;5034077;28;20085;-65
2023/10/17 13:35:20;;;;;;;;;;;23.30;32.40;;;;;;5034103;28;20010;-64
2023/10/17 13:37:52;;;;;;;;;;;23.40;33.20;;;;;;5034118;28;19989;-64
2023/10/17 13:40:22;;;;;;;;;;;23.70;32.50;;;;;;5034425;28;19992;-67
2023/10/17 13:42:50;;;;;;;;;;;23.80;33.10;;;;;;5034072;28;19993;-66
2023/10/17 13:45:16;;;;;;;;;;;23.90;31.60;;;;;;5033690;28;19990;-63
2023/10/17 13:47:42;;;;;;;;;;;23.80;30.70;;;;;;5033931;28;19994;-65
2023/10/17 13:50:13;;;;;;;;;;;23.60;31.10;;;;;;5033991;28;19982;-64
2023/10/17 13:52:42;;;;;;;;;;;23.00;31.40;;;;;;5034059;28;19986;-62
2023/10/17 13:55:14;;;;;;;;;;;22.70;31.30;;;;;;5033492;28;19987;-65
2023/10/17 13:57:42;;;;;;;;;;;22.40;32.00;;;;;;5033676;28;20013;-64
2023/10/17 14:00:19;;;;;;;;;;;22.30;32.80;;;;;;5033789;28;19982;-62
2023/10/17 14:02:49;;;;;;;;;;;22.10;33.10;;;;;;5033668;28;19981;-63
2023/10/17 14:05:18;;;;;;;;;;;21.90;32.10;;;;;;5033694;28;19986;-65
2023/10/17 14:07:44;;;;;;;;;;;21.40;33.30;;;;;;5033507;28;19990;-65
2023/10/17 14:10:10;;;;;;;;;;;21.60;35.70;;;;;;5033807;28;20333;-63
2023/10/17 14:12:39;;;;;;;;;;;21.80;33.80;;;;;;5033732;28;19982;-65
2023/10/17 14:15:08;;;;;;;;;;;21.50;32.70;;;;;;5033479;28;20006;-66
2023/10/17 14:17:34;;;;;;;;;;;21.60;34.80;;;;;;5033481;28;20057;-66
2023/10/17 14:20:14;;;;;;;;;;;21.90;33.70;;;;;;5033268;28;20026;-62
2023/10/17 14:28:09;;;;;;;;;;;22.10;33.00;;;;;;5033431;28;20081;-64
2023/10/17 14:30:39;;;;;;;;;;;21.90;32.50;;;;;;5033751;28;20021;-62
2023/10/17 14:33:05;;;;;;;;;;;21.90;32.90;;;;;;5033597;28;19986;-65
2023/10/17 14:35:34;;;;;;;;;;;22.00;33.40;;;;;;5033228;28;20448;-66
2023/10/17 14:38:00;;;;;;;;;;;22.10;32.50;;;;;;5033212;28;20391;-63
2023/10/17 14:40:30;;;;;;;;;;;22.20;33.30;;;;;;5033236;28;20036;-66
2023/10/17 14:42:55;;;;;;;;;;;22.10;32.20;;;;;;5033224;28;19982;-64
2023/10/17 14:45:24;;;;;;;;;;;22.00;33.70;;;;;;5033395;28;20519;-63
2023/10/17 14:47:50;;;;;;;;;;;21.80;32.60;;;;;;5033235;28;20321;-64
2023/10/17 14:50:15;;;;;;;;;;;21.50;32.80;;;;;;5033333;28;19990;-63
2023/10/17 14:52:41;;;;;;;;;;;21.40;33.90;;;;;;5033669;28;20436;-65
2023/10/17 14:55:13;;;;;;;;;;;21.20;34.00;;;;;;5033606;28;20039;-65
2023/10/17 14:57:45;;;;;;;;;;;21.20;33.70;;;;;;5037102;28;20081;-65
2023/10/17 15:00:12;;;;;;;;;;;20.90;33.70;;;;;;5037068;28;20424;-65
2023/10/17 15:02:39;;;;;;;;;;;20.80;35.50;;;;;;5037352;28;19990;-67
2023/10/17 15:05:07;;;;;;;;;;;20.80;35.50;;;;;;5036985;28;20503;-62
2023/10/17 15:07:34;;;;;;;;;;;20.70;36.30;;;;;;5036966;28;20021;-67
2023/10/17 15:10:00;;;;;;;;;;;20.50;36.70;;;;;;5036833;28;20084;-66
2023/10/17 15:12:25;;;;;;;;;;;20.30;37.20;;;;;;5036809;28;20033;-64
2023/10/17 15:14:51;;;;;;;;;;;20.10;38.10;;;;;;5037025;28;19989;-64
2023/10/17 15:17:18;;;;;;;;;;;19.80;39.30;;;;;;5036683;28;20013;-65
2023/10/17 15:19:43;;;;;;;;;;;19.70;39.60;;;;;;5036586;28;20434;-64
2023/10/17 15:22:09;;;;;;;;;;;19.50;39.40;;;;;;5036958;28;19986;-63
2023/10/17 15:24:34;;;;;;;;;;;19.20;39.70;;;;;;5036830;28;19986;-64
2023/10/17 15:27:01;;;;;;;;;;;18.90;40.20;;;;;;5036897;28;19982;-62
2023/10/17 15:29:27;;;;;;;;;;;18.80;40.20;;;;;;5036859;28;19988;-64
2023/10/17 15:31:53;;;;;;;;;;;18.70;40.80;;;;;;5036869;28;19990;-66
2023/10/17 15:34:21;;;;;;;;;;;18.50;41.80;;;;;;5036664;28;19993;-64
2023/10/17 15:36:47;;;;;;;;;;;18.30;42.50;;;;;;5035874;28;20125;-64
2023/10/17 15:39:14;;;;;;;;;;;18.10;43.10;;;;;;5036064;28;19986;-65
2023/10/17 15:41:42;;;;;;;;;;;18.00;43.60;;;;;;5035992;28;20452;-62
2023/10/17 15:44:08;;;;;;;;;;;17.80;43.70;;;;;;5036212;28;20361;-63
2023/10/17 15:46:33;;;;;;;;;;;17.60;44.20;;;;;;5036045;28;19992;-63
2023/10/17 15:48:59;;;;;;;;;;;17.40;45.30;;;;;;5035864;28;19982;-63
2023/10/17 15:51:26;;;;;;;;;;;17.10;46.30;;;;;;5035840;28;19990;-65
2023/10/17 15:53:53;;;;;;;;;;;16.70;46.80;;;;;;5035867;28;20040;-66
2023/10/17 15:56:24;;;;;;;;;;;16.20;48.10;;;;;;5035743;28;20533;-67
2023/10/17 15:58:51;;;;;;;;;;;15.90;49.00;;;;;;5035879;28;19982;-62
2023/10/17 16:01:16;;;;;;;;;;;15.50;50.00;;;;;;5035855;28;19982;-63
2023/10/17 16:03:46;;;;;;;;;;;15.10;51.40;;;;;;5035581;28;19982;-63
2023/10/17 16:06:11;;;;;;;;;;;14.80;52.40;;;;;;5035649;28;20032;-67
2023/10/17 16:08:37;;;;;;;;;;;14.60;52.30;;;;;;5032931;28;20435;-65
2023/10/17 16:11:03;;;;;;;;;;;14.40;53.30;;;;;;5035615;28;19986;-64
2023/10/17 16:13:29;;;;;;;;;;;14.10;54.30;;;;;;5035499;28;20049;-63
2023/10/17 16:15:58;;;;;;;;;;;14.00;55.30;;;;;;5035392;28;20061;-64
2023/10/17 16:18:24;;;;;;;;;;;13.90;54.30;;;;;;5035206;28;19986;-63
2023/10/17 16:20:49;;;;;;;;;;;13.90;54.80;;;;;;5035401;28;20093;-65
2023/10/17 16:23:17;;;;;;;;;;;13.70;56.40;;;;;;5035360;28;20059;-63
2023/10/17 16:25:48;;;;;;;;;;;13.50;56.70;;;;;;5035354;28;19990;-64
2023/10/17 16:28:15;;;;;;;;;;;13.50;57.70;;;;;;5035501;28;20076;-65
2023/10/17 16:30:41;;;;;;;;;;;13.50;58.10;;;;;;5035276;28;19982;-62
2023/10/17 16:33:08;;;;;;;;;;;13.40;58.60;;;;;;5035054;28;20458;-62
2023/10/17 16:35:36;;;;;;;;;;;13.20;58.70;;;;;;5034981;28;20123;-64
2023/10/17 16:38:01;;;;;;;;;;;13.10;59.90;;;;;;5035185;28;19986;-62
2023/10/17 16:40:27;;;;;;;;;;;13.10;60.40;;;;;;5035178;28;20005;-64
2023/10/17 16:42:53;;;;;;;;;;;13.20;60.00;;;;;;5034910;28;19982;-63
2023/10/17 16:45:19;;;;;;;;;;;13.30;60.30;;;;;;5035086;28;19982;-64
2023/10/17 16:47:47;;;;;;;;;;;13.30;60.20;;;;;;5034709;28;19982;-64
2023/10/17 16:50:13;;;;;;;;;;;13.30;60.80;;;;;;5034856;28;20436;-62
2023/10/17 16:52:39;;;;;;;;;;;13.10;61.20;;;;;;5034761;28;19996;-63
2023/10/17 16:55:05;;;;;;;;;;;13.00;62.50;;;;;;5034739;28;20454;-65
2023/10/17 16:57:30;;;;;;;;;;;13.00;63.20;;;;;;5034588;28;20093;-65
2023/10/17 16:59:56;;;;;;;;;;;13.10;62.90;;;;;;5034675;28;20363;-62
2023/10/17 17:02:21;;;;;;;;;;;13.20;61.70;;;;;;5034542;28;20459;-65
2023/10/17 17:04:47;;;;;;;;;;;13.10;61.60;;;;;;5034559;28;19982;-64
2023/10/17 17:07:13;;;;;;;;;;;13.10;61.80;;;;;;5034473;28;19983;-65
2023/10/17 17:09:39;;;;;;;;;;;13.00;62.50;;;;;;5034495;28;19982;-64
2023/10/17 17:12:05;;;;;;;;;;;13.00;62.50;;;;;;5034382;28;19983;-62
2023/10/17 17:14:30;;;;;;;;;;;13.10;63.20;;;;;;5034303;28;20080;-64
2023/10/17 17:16:57;;;;;;;;;;;13.10;62.60;;;;;;5034030;28;20145;-64
2023/10/17 17:19:23;;;;;;;;;;;13.00;62.30;;;;;;5033718;28;20018;-65
2023/10/17 17:21:50;;;;;;;;;;;12.90;62.80;;;;;;5034253;28;20448;-63
2023/10/17 17:24:17;;;;;;;;;;;13.00;62.20;;;;;;5034374;28;20067;-63
2023/10/17 17:26:43;;;;;;;;;;;13.10;62.10;;;;;;5034088;28;19990;-65
2023/10/17 17:29:09;;;;;;;;;;;13.20;60.90;;;;;;5034036;28;20022;-61
2023/10/17 17:31:35;;;;;;;;;;;13.20;62.50;;;;;;5034103;28;20083;-65
2023/10/17 17:34:00;;;;;;;;;;;13.20;60.80;;;;;;5034096;28;19989;-63
2023/10/17 17:36:27;;;;;;;;;;;13.20;60.90;;;;;;5033878;28;20555;-65
2023/10/17 17:38:53;;;;;;;;;;;13.20;61.10;;;;;;5034035;28;20021;-62
2023/10/17 17:41:19;;;;;;;;;;;13.10;61.00;;;;;;5034078;28;19982;-64
2023/10/17 17:43:44;;;;;;;;;;;13.00;60.90;;;;;;5033923;28;19993;-64
2023/10/17 17:46:10;;;;;;;;;;;13.10;61.30;;;;;;5033262;28;19983;-65
2023/10/17 17:48:35;;;;;;;;;;;13.10;61.40;;;;;;5034137;28;19986;-62
2023/10/17 17:51:02;;;;;;;;;;;13.00;61.70;;;;;;5033311;28;20037;-64
2023/10/17 17:53:28;;;;;;;;;;;13.00;62.00;;;;;;5033723;28;19993;-63
2023/10/17 17:55:54;;;;;;;;;;;13.00;61.10;;;;;;5033606;28;20114;-64
2023/10/17 17:58:20;;;;;;;;;;;13.00;61.20;;;;;;5034024;28;20034;-65
2023/10/17 18:00:51;;;;;;;;;;;13.00;61.90;;;;;;5033758;28;20410;-66
2023/10/17 18:03:18;;;;;;;;;;;12.90;61.50;;;;;;5033729;28;19982;-63
2023/10/17 18:05:44;;;;;;;;;;;12.90;62.40;;;;;;5033594;28;19990;-64
2023/10/17 18:08:10;;;;;;;;;;;12.80;61.10;;;;;;5032946;28;20028;-63
2023/10/17 18:10:36;;;;;;;;;;;12.80;61.80;;;;;;5032747;28;19987;-65
2023/10/17 18:13:02;;;;;;;;;;;12.70;61.70;;;;;;5033569;28;20022;-62
2023/10/17 18:15:32;;;;;;;;;;;12.70;62.00;;;;;;5033063;28;20011;-65
2023/10/17 18:17:57;;;;;;;;;;;12.60;63.10;;;;;;5033438;28;19986;-63
2023/10/17 18:20:23;;;;;;;;;;;12.50;63.10;;;;;;5015575;28;20033;-62
2023/10/17 18:22:49;;;;;;;;;;;12.50;63.70;;;;;;5033431;28;19982;-65
2023/10/17 18:25:14;;;;;;;;;;;12.50;64.00;;;;;;5033338;28;20075;-62
2023/10/17 18:27:40;;;;;;;;;;;12.40;64.10;;;;;;5033428;28;20032;-65
2023/10/17 18:30:09;;;;;;;;;;;12.40;64.30;;;;;;5033560;28;19982;-64
2023/10/17 18:32:35;;;;;;;;;;;12.30;66.00;;;;;;5037532;28;20049;-64
2023/10/17 18:35:01;;;;;;;;;;;12.20;65.40;;;;;;5037684;28;20061;-62
2023/10/17 18:37:27;;;;;;;;;;;12.00;66.10;;;;;;5037272;28;20104;-64
2023/10/17 18:39:53;;;;;;;;;;;12.00;67.00;;;;;;5037831;28;20005;-63
2023/10/17 18:42:19;;;;;;;;;;;12.00;67.20;;;;;;5037232;28;19982;-64
2023/10/17 18:44:45;;;;;;;;;;;12.00;68.10;;;;;;5037300;28;20021;-62
2023/10/17 18:47:11;;;;;;;;;;;11.90;69.70;;;;;;5037403;28;20029;-66
2023/10/17 18:49:37;;;;;;;;;;;11.80;70.20;;;;;;5037216;28;20480;-65
2023/10/17 18:52:03;;;;;;;;;;;11.80;70.60;;;;;;5037135;28;20077;-66
2023/10/17 18:54:28;;;;;;;;;;;11.80;70.60;;;;;;5036967;28;20025;-64
2023/10/17 18:56:58;;;;;;;;;;;11.80;70.90;;;;;;5036962;28;20435;-63
2023/10/17 18:59:24;;;;;;;;;;;11.80;70.30;;;;;;5036832;28;19986;-63
2023/10/17 19:01:49;;;;;;;;;;;11.70;70.80;;;;;;5036772;28;20005;-64
2023/10/17 19:04:15;;;;;;;;;;;11.60;71.30;;;;;;5036888;28;20073;-62
2023/10/17 19:06:40;;;;;;;;;;;11.60;71.90;;;;;;5036840;28;19990;-66
2023/10/17 19:09:14;;;;;;;;;;;11.50;72.00;;;;;;5036633;28;19994;-64
2023/10/17 19:11:40;;;;;;;;;;;11.40;73.00;;;;;;5036833;28;19989;-65
2023/10/17 19:14:05;;;;;;;;;;;11.40;74.20;;;;;;5036420;28;19986;-64
2023/10/17 19:16:31;;;;;;;;;;;11.30;75.00;;;;;;5036443;28;20018;-64
2023/10/17 19:18:57;;;;;;;;;;;11.20;74.90;;;;;;5036528;28;20506;-63
2023/10/17 19:21:23;;;;;;;;;;;11.10;76.20;;;;;;5036552;28;19982;-63
2023/10/17 19:23:51;;;;;;;;;;;11.10;77.10;;;;;;5036464;28;19990;-65
2023/10/17 19:26:18;;;;;;;;;;;11.10;77.80;;;;;;5036667;28;19986;-65
2023/10/17 19:28:44;;;;;;;;;;;11.00;78.10;;;;;;5036536;28;20391;-62
2023/10/17 19:31:10;;;;;;;;;;;11.00;78.60;;;;;;5036261;28;19982;-65
2023/10/17 19:33:36;;;;;;;;;;;10.90;78.60;;;;;;5036476;28;20428;-65
2023/10/17 19:36:02;;;;;;;;;;;10.90;78.50;;;;;;5036381;28;20109;-65
2023/10/17 19:38:28;;;;;;;;;;;11.00;78.20;;;;;;5036490;28;19987;-64
2023/10/17 19:40:56;;;;;;;;;;;11.00;77.90;;;;;;5036577;28;20037;-65
2023/10/17 19:43:22;;;;;;;;;;;11.00;78.30;;;;;;5035192;28;19982;-66
2023/10/17 19:45:48;;;;;;;;;;;11.00;78.30;;;;;;5036685;28;19993;-65
2023/10/17 19:48:14;;;;;;;;;;;11.10;78.80;;;;;;5035975;28;19986;-63
2023/10/17 19:50:43;;;;;;;;;;;11.00;79.00;;;;;;5036282;28;20076;-66
2023/10/17 19:53:09;;;;;;;;;;;11.00;79.60;;;;;;5036011;28;19982;-66
2023/10/17 19:55:34;;;;;;;;;;;11.00;79.40;;;;;;5035572;28;20444;-62
2023/10/17 19:58:00;;;;;;;;;;;11.00;79.40;;;;;;5035946;28;20414;-63
2023/10/17 20:00:26;;;;;;;;;;;11.00;79.30;;;;;;5035747;28;20383;-63
2023/10/17 20:02:52;;;;;;;;;;;11.00;79.00;;;;;;5035667;28;19986;-64
2023/10/17 20:05:18;;;;;;;;;;;11.00;79.30;;;;;;5035773;28;19982;-62
2023/10/17 20:07:45;;;;;;;;;;;11.00;79.40;;;;;;5035672;28;19986;-62
2023/10/17 20:10:10;;;;;;;;;;;10.90;80.10;;;;;;5035312;28;19987;-64
2023/10/17 20:12:36;;;;;;;;;;;10.90;78.50;;;;;;5035838;28;19993;-63
2023/10/17 20:15:04;;;;;;;;;;;10.90;77.90;;;;;;5035352;28;20372;-65
2023/10/17 20:17:30;;;;;;;;;;;10.90;77.70;;;;;;5035658;28;20069;-62
2023/10/17 20:19:56;;;;;;;;;;;10.90;78.20;;;;;;5035271;28;20475;-66
2023/10/17 20:22:22;;;;;;;;;;;10.90;78.50;;;;;;5035745;28;20082;-65
2023/10/17 20:24:48;;;;;;;;;;;10.80;79.10;;;;;;5035447;28;20040;-63
2023/10/17 20:27:14;;;;;;;;;;;10.80;78.10;;;;;;5035548;28;20455;-64
2023/10/17 20:29:41;;;;;;;;;;;10.80;78.40;;;;;;5035575;28;19986;-65
2023/10/17 20:32:07;;;;;;;;;;;10.70;79.50;;;;;;5035187;28;19986;-63
2023/10/17 20:34:33;;;;;;;;;;;10.60;80.00;;;;;;5035138;28;19989;-62
2023/10/17 20:36:59;;;;;;;;;;;10.60;81.20;;;;;;5035026;28;20006;-64
2023/10/17 20:39:26;;;;;;;;;;;10.60;80.70;;;;;;5034923;28;20036;-62
2023/10/17 20:41:52;;;;;;;;;;;10.60;82.50;;;;;;5034987;28;19982;-65
2023/10/17 20:44:19;;;;;;;;;;;10.60;81.30;;;;;;5034979;28;20443;-63
2023/10/17 20:46:45;;;;;;;;;;;10.60;82.50;;;;;;5034928;28;19982;-62
2023/10/17 20:49:12;;;;;;;;;;;10.70;80.80;;;;;;5034906;28;20040;-64
2023/10/17 20:51:38;;;;;;;;;;;10.60;80.60;;;;;;5034888;28;19988;-62
2023/10/17 20:54:04;;;;;;;;;;;10.60;81.10;;;;;;5034513;28;19986;-62
2023/10/17 20:56:29;;;;;;;;;;;10.60;80.90;;;;;;5034658;28;20381;-65
2023/10/17 20:58:56;;;;;;;;;;;10.60;81.40;;;;;;5034793;28;20008;-63
2023/10/17 21:01:23;;;;;;;;;;;10.60;80.80;;;;;;5033942;28;20393;-62
2023/10/17 21:03:54;;;;;;;;;;;10.50;79.80;;;;;;5034602;28;19992;-63
2023/10/17 21:06:20;;;;;;;;;;;10.50;79.20;;;;;;5034625;28;20044;-65
2023/10/17 21:08:45;;;;;;;;;;;10.50;79.40;;;;;;5034408;28;19982;-63
2023/10/17 21:11:17;;;;;;;;;;;10.40;82.30;;;;;;5034354;28;19986;-63
2023/10/17 21:13:43;;;;;;;;;;;10.40;81.30;;;;;;5034448;28;20344;-64
2023/10/17 21:16:09;;;;;;;;;;;10.40;81.70;;;;;;5034213;28;20101;-64
2023/10/17 21:18:36;;;;;;;;;;;10.40;80.80;;;;;;5034151;28;20020;-63
2023/10/17 21:21:03;;;;;;;;;;;10.40;79.80;;;;;;5034309;28;20057;-65
2023/10/17 21:23:30;;;;;;;;;;;10.40;80.60;;;;;;5034116;28;19983;-63
2023/10/17 21:25:58;;;;;;;;;;;10.30;80.00;;;;;;5034349;28;19986;-64
2023/10/17 21:28:24;;;;;;;;;;;10.30;80.90;;;;;;5034228;28;20331;-62
2023/10/17 21:30:49;;;;;;;;;;;10.20;82.10;;;;;;5034266;28;20116;-64
2023/10/17 21:33:15;;;;;;;;;;;10.10;83.70;;;;;;5034028;28;20451;-64
2023/10/17 21:35:40;;;;;;;;;;;10.10;83.00;;;;;;5034064;28;20428;-64
2023/10/17 21:38:06;;;;;;;;;;;10.20;83.70;;;;;;5033900;28;20289;-65
2023/10/17 21:40:32;;;;;;;;;;;10.20;82.40;;;;;;5034030;28;20351;-64
2023/10/17 21:42:57;;;;;;;;;;;10.10;82.10;;;;;;5033882;28;20032;-62
2023/10/17 21:45:23;;;;;;;;;;;10.10;82.80;;;;;;5034062;28;20391;-65
2023/10/17 21:47:48;;;;;;;;;;;10.10;82.90;;;;;;5034096;28;19992;-62
2023/10/17 21:50:14;;;;;;;;;;;10.10;84.80;;;;;;5033846;28;20080;-64
2023/10/17 21:52:40;;;;;;;;;;;10.10;85.60;;;;;;5033795;28;19982;-65
2023/10/17 21:55:06;;;;;;;;;;;10.10;86.10;;;;;;5033861;28;20478;-64
2023/10/17 21:57:32;;;;;;;;;;;10.10;84.90;;;;;;5033675;28;20041;-64
2023/10/17 21:59:57;;;;;;;;;;;10.10;83.40;;;;;;5034032;28;20440;-64
2023/10/17 22:02:23;;;;;;;;;;;10.10;83.10;;;;;;5015907;28;20008;-63
2023/10/17 22:04:48;;;;;;;;;;;10.10;83.00;;;;;;5033227;28;19982;-62
2023/10/17 22:07:14;;;;;;;;;;;10.00;85.10;;;;;;5033302;28;20089;-64
2023/10/17 22:09:40;;;;;;;;;;;9.90;86.40;;;;;;5033710;28;19982;-64
2023/10/17 22:12:09;;;;;;;;;;;9.90;86.40;;;;;;5033632;28;20056;-63
2023/10/17 22:14:36;;;;;;;;;;;9.90;87.70;;;;;;5033416;28;19994;-65
2023/10/17 22:17:03;;;;;;;;;;;9.80;86.90;;;;;;5033587;28;20039;-63
2023/10/17 22:19:29;;;;;;;;;;;9.80;86.20;;;;;;5033364;28;20025;-65
2023/10/17 22:21:54;;;;;;;;;;;9.80;84.80;;;;;;5033233;28;20444;-65
2023/10/17 22:24:20;;;;;;;;;;;9.70;84.70;;;;;;5033532;28;19983;-64
2023/10/17 22:26:45;;;;;;;;;;;9.70;85.10;;;;;;5033463;28;19982;-61
2023/10/17 22:29:11;;;;;;;;;;;9.60;85.20;;;;;;5033625;28;19986;-65
2023/10/17 22:31:37;;;;;;;;;;;9.60;86.70;;;;;;5033461;28;20393;-63
2023/10/17 22:34:03;;;;;;;;;;;9.50;86.90;;;;;;5033525;28;19982;-65
2023/10/17 22:36:28;;;;;;;;;;;9.40;88.40;;;;;;5033323;28;20337;-66
2023/10/17 22:38:55;;;;;;;;;;;9.40;87.10;;;;;;5033336;28;20005;-62
2023/10/17 22:41:21;;;;;;;;;;;9.50;86.90;;;;;;5033432;28;19982;-63
2023/10/17 22:43:47;;;;;;;;;;;9.40;88.20;;;;;;5033256;28;20350;-62
2023/10/17 22:46:12;;;;;;;;;;;9.40;88.70;;;;;;5033272;28;19982;-66
2023/10/17 22:48:38;;;;;;;;;;;9.40;87.90;;;;;;5033345;28;19989;-65
2023/10/17 22:51:04;;;;;;;;;;;9.40;87.80;;;;;;5033342;28;19990;-64
2023/10/17 22:53:33;;;;;;;;;;;9.30;87.70;;;;;;5033515;28;20140;-64
2023/10/17 22:56:02;;;;;;;;;;;9.20;89.80;;;;;;5033444;28;20132;-64
2023/10/17 22:58:27;;;;;;;;;;;9.10;89.60;;;;;;5033079;28;19982;-63
2023/10/17 23:00:53;;;;;;;;;;;9.10;89.70;;;;;;5033166;28;19982;-66
2023/10/17 23:03:18;;;;;;;;;;;9.10;89.70;;;;;;5033160;28;20028;-62
2023/10/17 23:05:45;;;;;;;;;;;9.10;88.70;;;;;;5032935;28;20048;-63
2023/10/17 23:08:12;;;;;;;;;;;9.10;89.10;;;;;;5033050;28;20026;-64
2023/10/17 23:10:38;;;;;;;;;;;9.00;89.20;;;;;;5033349;28;20040;-63
2023/10/17 23:13:04;;;;;;;;;;;9.00;88.90;;;;;;5033098;28;19986;-64
2023/10/17 23:15:29;;;;;;;;;;;9.00;88.90;;;;;;5032952;28;20037;-62
2023/10/17 23:17:55;;;;;;;;;;;9.00;89.40;;;;;;5036008;28;20402;-66
2023/10/17 23:20:22;;;;;;;;;;;9.00;89.80;;;;;;5036308;28;20060;-64
2023/10/17 23:22:48;;;;;;;;;;;9.00;90.00;;;;;;5036572;28;19986;-62
2023/10/17 23:25:13;;;;;;;;;;;9.00;90.30;;;;;;5036518;28;19982;-65
2023/10/17 23:27:39;;;;;;;;;;;9.00;90.30;;;;;;5036664;28;19990;-63
2023/10/17 23:30:12;;;;;;;;;;;9.00;90.40;;;;;;5036401;28;20447;-63
2023/10/17 23:32:37;;;;;;;;;;;9.00;90.60;;;;;;5036446;28;20478;-64
2023/10/17 23:35:07;;;;;;;;;;;9.00;90.50;;;;;;5036235;28;20089;-63
2023/10/17 23:37:33;;;;;;;;;;;9.00;90.50;;;;;;5036197;28;20464;-65
2023/10/17 23:40:00;;;;;;;;;;;9.00;90.60;;;;;;5036264;28;19982;-63
2023/10/17 23:42:27;;;;;;;;;;;9.00;90.50;;;;;;5036309;28;19988;-66
2023/10/17 23:44:52;;;;;;;;;;;9.00;91.00;;;;;;5036116;28;19982;-63
2023/10/17 23:47:18;;;;;;;;;;;8.90;91.80;;;;;;5036110;28;19990;-63
2023/10/17 23:49:43;;;;;;;;;;;8.80;92.00;;;;;;5035815;28;19990;-62
2023/10/17 23:52:10;;;;;;;;;;;8.80;91.60;;;;;;5035993;28;19990;-63
2023/10/17 23:54:41;;;;;;;;;;;8.80;91.20;;;;;;5036084;28;20073;-62
2023/10/17 23:57:07;;;;;;;;;;;8.80;90.50;;;;;;5035977;28;20010;-65
2023/10/17 23:59:32;;;;;;;;;;;8.90;90.10;;;;;;5035862;28;20052;-64
